createdAt,value
2019-01-06T00:00:32.065Z,4.00
2019-01-06T00:01:32.039Z,4.00
2019-01-06T00:02:32.016Z,4.00
2019-01-06T00:03:31.993Z,4.00
2019-01-06T00:04:32.082Z,4.00
2019-01-06T00:05:31.955Z,4.00
2019-01-06T00:06:31.940Z,4.00
2019-01-06T00:07:31.902Z,4.00
2019-01-06T00:08:31.883Z,4.00
2019-01-06T00:09:31.877Z,4.00
2019-01-06T00:10:31.830Z,4.00
2019-01-06T00:11:31.807Z,4.00
2019-01-06T00:12:31.794Z,4.00
2019-01-06T00:13:31.762Z,4.00
2019-01-06T00:14:31.735Z,4.00
2019-01-06T00:15:31.713Z,4.00
2019-01-06T00:16:31.690Z,4.00
2019-01-06T00:17:31.667Z,4.00
2019-01-06T00:18:31.656Z,4.00
2019-01-06T00:19:31.626Z,4.00
2019-01-06T00:20:31.598Z,4.00
2019-01-06T00:21:31.577Z,4.00
2019-01-06T00:22:31.552Z,4.00
2019-01-06T00:23:31.529Z,4.00
2019-01-06T00:24:31.507Z,4.00
2019-01-06T00:25:31.480Z,4.00
2019-01-06T00:26:31.458Z,4.00
2019-01-06T00:27:31.435Z,4.00
2019-01-06T00:28:31.413Z,4.00
2019-01-06T00:29:31.394Z,4.00
2019-01-06T00:30:31.381Z,4.00
2019-01-06T00:31:31.367Z,4.00
2019-01-06T00:32:31.322Z,4.00
2019-01-06T00:33:31.295Z,4.00
2019-01-06T00:34:31.273Z,4.00
2019-01-06T00:35:31.301Z,4.00
2019-01-06T00:36:31.229Z,4.00
2019-01-06T00:37:31.207Z,4.00
2019-01-06T00:38:31.181Z,4.00
2019-01-06T00:39:31.186Z,4.00
2019-01-06T00:40:31.151Z,4.00
2019-01-06T00:41:31.120Z,4.00
2019-01-06T00:42:31.090Z,4.00
2019-01-06T00:43:31.069Z,4.00
2019-01-06T00:44:31.045Z,4.00
2019-01-06T00:45:31.033Z,4.00
2019-01-06T00:46:31.001Z,4.00
2019-01-06T00:47:30.988Z,4.00
2019-01-06T00:48:30.951Z,4.00
2019-01-06T00:49:30.971Z,4.00
2019-01-06T00:50:30.913Z,4.00
2019-01-06T00:51:30.890Z,4.00
2019-01-06T00:52:30.864Z,4.00
2019-01-06T00:53:30.834Z,4.00
2019-01-06T00:54:30.813Z,4.00
2019-01-06T00:55:30.805Z,4.00
2019-01-06T00:56:30.766Z,4.00
2019-01-06T00:57:30.744Z,4.00
2019-01-06T00:58:30.732Z,4.00
2019-01-06T00:59:30.701Z,4.00
2019-01-06T01:00:30.677Z,4.00
2019-01-06T01:01:30.649Z,4.00
2019-01-06T01:02:30.633Z,4.00
2019-01-06T01:03:30.610Z,4.00
2019-01-06T01:04:30.603Z,4.00
2019-01-06T01:05:30.561Z,4.00
2019-01-06T01:06:30.542Z,4.00
2019-01-06T01:07:30.518Z,4.00
2019-01-06T01:08:30.488Z,4.00
2019-01-06T01:09:30.468Z,4.00
2019-01-06T01:10:30.448Z,4.00
2019-01-06T01:11:30.418Z,4.00
2019-01-06T01:12:30.442Z,4.00
2019-01-06T01:13:30.373Z,4.00
2019-01-06T01:14:30.349Z,4.00
2019-01-06T01:15:30.325Z,4.00
2019-01-06T01:16:30.304Z,4.00
2019-01-06T01:17:30.276Z,4.00
2019-01-06T01:18:30.254Z,4.00
2019-01-06T01:19:30.233Z,4.00
2019-01-06T01:20:30.219Z,4.00
2019-01-06T01:21:30.184Z,4.00
2019-01-06T01:22:30.169Z,4.00
2019-01-06T01:23:30.137Z,4.00
2019-01-06T01:24:30.116Z,4.00
2019-01-06T01:25:30.098Z,4.00
2019-01-06T01:26:30.081Z,4.00
2019-01-06T01:27:30.044Z,4.00
2019-01-06T01:28:30.022Z,4.00
2019-01-06T01:29:30.004Z,4.00
2019-01-06T01:30:29.979Z,4.00
2019-01-06T01:31:29.954Z,4.00
2019-01-06T01:32:29.930Z,4.00
2019-01-06T01:33:29.906Z,4.00
2019-01-06T01:34:29.883Z,4.00
2019-01-06T01:35:29.861Z,4.00
2019-01-06T01:36:29.837Z,4.00
2019-01-06T01:37:29.812Z,4.00
2019-01-06T01:38:29.791Z,4.00
2019-01-06T01:39:29.776Z,4.00
2019-01-06T01:40:29.744Z,4.00
2019-01-06T01:41:29.720Z,4.00
2019-01-06T01:42:29.697Z,4.00
2019-01-06T01:43:29.674Z,4.00
2019-01-06T01:44:29.652Z,4.00
2019-01-06T01:45:29.628Z,4.00
2019-01-06T01:46:29.604Z,4.00
2019-01-06T01:47:29.596Z,4.00
2019-01-06T01:48:29.557Z,4.00
2019-01-06T01:49:29.534Z,4.00
2019-01-06T01:50:29.512Z,4.00
2019-01-06T01:51:29.489Z,4.00
2019-01-06T01:52:29.474Z,4.00
2019-01-06T01:53:29.442Z,4.00
2019-01-06T01:54:29.419Z,4.00
2019-01-06T01:55:29.395Z,4.00
2019-01-06T01:56:29.371Z,4.00
2019-01-06T01:57:29.358Z,4.00
2019-01-06T01:58:29.330Z,4.00
2019-01-06T01:59:29.310Z,4.00
2019-01-06T02:00:29.280Z,4.00
2019-01-06T02:01:29.266Z,4.00
2019-01-06T02:02:29.232Z,4.00
2019-01-06T02:03:29.217Z,4.00
2019-01-06T02:04:29.186Z,4.00
2019-01-06T02:05:29.166Z,4.00
2019-01-06T02:06:29.145Z,4.00
2019-01-06T02:07:29.132Z,4.00
2019-01-06T02:08:29.104Z,4.00
2019-01-06T02:09:29.071Z,4.00
2019-01-06T02:10:29.060Z,4.00
2019-01-06T02:11:29.035Z,4.00
2019-01-06T02:12:29.001Z,4.00
2019-01-06T02:13:28.976Z,4.00
2019-01-06T02:14:28.954Z,4.00
2019-01-06T02:15:28.938Z,4.00
2019-01-06T02:16:28.908Z,4.00
2019-01-06T02:17:28.910Z,4.00
2019-01-06T02:18:28.869Z,4.00
2019-01-06T02:19:28.838Z,4.00
2019-01-06T02:20:28.814Z,4.00
2019-01-06T02:21:28.791Z,4.00
2019-01-06T02:22:28.778Z,4.00
2019-01-06T02:23:28.748Z,4.00
2019-01-06T02:24:28.724Z,4.00
2019-01-06T02:25:28.707Z,4.00
2019-01-06T02:26:28.682Z,4.00
2019-01-06T02:27:28.655Z,4.00
2019-01-06T02:28:28.639Z,4.00
2019-01-06T02:29:28.609Z,4.00
2019-01-06T02:30:28.583Z,4.00
2019-01-06T02:31:28.567Z,4.00
2019-01-06T02:32:28.536Z,4.00
2019-01-06T02:33:28.524Z,4.00
2019-01-06T02:34:28.490Z,4.00
2019-01-06T02:35:28.469Z,4.00
2019-01-06T02:36:28.448Z,4.00
2019-01-06T02:37:28.430Z,4.00
2019-01-06T02:38:28.400Z,4.00
2019-01-06T02:39:28.373Z,4.00
2019-01-06T02:40:28.355Z,4.00
2019-01-06T02:41:28.336Z,4.00
2019-01-06T02:42:28.309Z,4.00
2019-01-06T02:43:28.280Z,4.00
2019-01-06T02:44:28.257Z,4.00
2019-01-06T02:45:28.233Z,4.00
2019-01-06T02:46:28.218Z,4.00
2019-01-06T02:47:28.198Z,4.00
2019-01-06T02:48:28.171Z,4.00
2019-01-06T02:49:28.142Z,4.00
2019-01-06T02:50:28.122Z,4.00
2019-01-06T02:51:28.095Z,4.00
2019-01-06T02:52:28.072Z,4.00
2019-01-06T02:53:28.048Z,4.00
2019-01-06T02:54:28.025Z,4.00
2019-01-06T02:55:28.002Z,4.00
2019-01-06T02:56:27.979Z,4.00
2019-01-06T02:57:27.963Z,4.00
2019-01-06T02:58:27.966Z,4.00
2019-01-06T02:59:27.909Z,4.00
2019-01-06T03:00:27.886Z,4.00
2019-01-06T03:01:27.863Z,4.00
2019-01-06T03:02:27.840Z,4.00
2019-01-06T03:03:27.818Z,4.00
2019-01-06T03:04:27.793Z,4.00
2019-01-06T03:05:27.778Z,4.00
2019-01-06T03:06:27.755Z,4.00
2019-01-06T03:07:27.775Z,4.00
2019-01-06T03:08:27.710Z,4.00
2019-01-06T03:09:27.677Z,4.00
2019-01-06T03:10:27.659Z,4.00
2019-01-06T03:11:27.633Z,4.00
2019-01-06T03:12:27.609Z,4.00
2019-01-06T03:13:27.595Z,4.00
2019-01-06T03:14:27.572Z,4.00
2019-01-06T03:15:27.557Z,4.00
2019-01-06T03:16:27.516Z,4.00
2019-01-06T03:17:27.493Z,4.00
2019-01-06T03:18:27.477Z,4.00
2019-01-06T03:19:27.449Z,4.00
2019-01-06T03:20:27.422Z,4.00
2019-01-06T03:21:27.399Z,4.00
2019-01-06T03:22:27.374Z,4.00
2019-01-06T03:23:27.356Z,4.00
2019-01-06T03:24:27.338Z,4.00
2019-01-06T03:25:27.323Z,4.00
2019-01-06T03:26:27.290Z,4.00
2019-01-06T03:27:27.265Z,4.00
2019-01-06T03:28:27.240Z,4.00
2019-01-06T03:29:27.215Z,4.00
2019-01-06T03:30:27.191Z,4.00
2019-01-06T03:31:27.169Z,4.00
2019-01-06T03:32:27.147Z,4.00
2019-01-06T03:33:27.135Z,4.00
2019-01-06T03:34:27.097Z,4.00
2019-01-06T03:35:27.087Z,4.00
2019-01-06T03:36:27.051Z,4.00
2019-01-06T03:37:27.027Z,4.00
2019-01-06T03:38:27.004Z,4.00
2019-01-06T03:39:26.981Z,4.00
2019-01-06T03:40:26.959Z,4.00
2019-01-06T03:41:26.933Z,4.00
2019-01-06T03:42:26.911Z,4.00
2019-01-06T03:43:26.930Z,4.00
2019-01-06T03:44:26.866Z,4.00
2019-01-06T03:45:26.845Z,4.00
2019-01-06T03:46:26.819Z,4.00
2019-01-06T03:47:26.797Z,4.00
2019-01-06T03:48:26.774Z,4.00
2019-01-06T03:49:26.748Z,4.00
2019-01-06T03:50:26.726Z,4.00
2019-01-06T03:51:26.702Z,4.00
2019-01-06T03:52:26.679Z,4.00
2019-01-06T03:53:26.656Z,4.00
2019-01-06T03:54:26.631Z,4.00
2019-01-06T03:55:26.610Z,4.00
2019-01-06T03:56:26.587Z,4.00
2019-01-06T03:57:26.562Z,4.00
2019-01-06T03:58:26.541Z,4.00
2019-01-06T03:59:26.518Z,4.00
2019-01-06T04:00:26.499Z,4.00
2019-01-06T04:01:26.478Z,4.00
2019-01-06T04:02:26.447Z,4.00
2019-01-06T04:03:26.432Z,4.00
2019-01-06T04:04:26.401Z,4.00
2019-01-06T04:05:26.378Z,4.00
2019-01-06T04:06:26.353Z,4.00
2019-01-06T04:07:26.339Z,4.00
2019-01-06T04:08:26.309Z,4.00
2019-01-06T04:09:26.284Z,4.00
2019-01-06T04:10:26.421Z,4.00
2019-01-06T04:11:26.248Z,4.00
2019-01-06T04:12:26.217Z,4.00
2019-01-06T04:13:26.193Z,4.00
2019-01-06T04:14:26.172Z,4.00
2019-01-06T04:15:26.146Z,4.00
2019-01-06T04:16:26.121Z,4.00
2019-01-06T04:17:26.098Z,4.00
2019-01-06T04:18:26.076Z,4.00
2019-01-06T04:19:26.053Z,4.00
2019-01-06T04:20:26.030Z,4.00
2019-01-06T04:21:26.004Z,4.00
2019-01-06T04:22:25.982Z,4.00
2019-01-06T04:23:25.967Z,4.00
2019-01-06T04:24:25.936Z,4.00
2019-01-06T04:25:25.912Z,4.00
2019-01-06T04:26:25.896Z,4.00
2019-01-06T04:27:25.867Z,4.00
2019-01-06T04:28:25.868Z,4.00
2019-01-06T04:29:25.819Z,4.00
2019-01-06T04:30:25.795Z,4.00
2019-01-06T04:31:25.773Z,4.00
2019-01-06T04:32:25.748Z,4.00
2019-01-06T04:33:25.726Z,4.00
2019-01-06T04:34:25.703Z,4.00
2019-01-06T04:35:25.680Z,4.00
2019-01-06T04:36:25.664Z,4.00
2019-01-06T04:37:25.631Z,4.00
2019-01-06T04:38:25.610Z,4.00
2019-01-06T04:39:25.587Z,4.00
2019-01-06T04:40:25.564Z,4.00
2019-01-06T04:41:25.540Z,4.00
2019-01-06T04:42:25.516Z,4.00
2019-01-06T04:43:25.494Z,4.00
2019-01-06T04:44:25.470Z,4.00
2019-01-06T04:45:25.447Z,4.00
2019-01-06T04:46:25.439Z,4.00
2019-01-06T04:47:25.400Z,4.00
2019-01-06T04:48:25.376Z,4.00
2019-01-06T04:49:25.354Z,4.00
2019-01-06T04:50:25.331Z,4.00
2019-01-06T04:51:25.307Z,4.00
2019-01-06T04:52:25.284Z,4.00
2019-01-06T04:53:25.261Z,4.00
2019-01-06T04:54:25.238Z,4.00
2019-01-06T04:55:25.215Z,4.00
2019-01-06T04:56:25.190Z,4.00
2019-01-06T04:57:25.173Z,4.00
2019-01-06T04:58:25.163Z,4.00
2019-01-06T04:59:25.126Z,4.00
2019-01-06T05:00:25.098Z,4.00
2019-01-06T05:01:25.076Z,4.00
2019-01-06T05:02:25.052Z,4.00
2019-01-06T05:03:25.029Z,4.00
2019-01-06T05:04:25.006Z,4.00
2019-01-06T05:05:24.980Z,4.00
2019-01-06T05:06:24.965Z,4.00
2019-01-06T05:07:24.936Z,4.00
2019-01-06T05:08:24.916Z,4.00
2019-01-06T05:09:24.886Z,4.00
2019-01-06T05:10:24.867Z,4.00
2019-01-06T05:11:24.840Z,4.00
2019-01-06T05:12:24.817Z,4.00
2019-01-06T05:13:24.794Z,4.00
2019-01-06T05:14:24.770Z,4.00
2019-01-06T05:15:24.746Z,4.00
2019-01-06T05:16:24.722Z,4.00
2019-01-06T05:17:24.699Z,4.00
2019-01-06T05:18:24.678Z,4.00
2019-01-06T05:19:24.652Z,4.00
2019-01-06T05:20:24.630Z,4.00
2019-01-06T05:21:24.606Z,4.00
2019-01-06T05:22:24.582Z,4.00
2019-01-06T05:23:24.558Z,4.00
2019-01-06T05:24:24.543Z,4.00
2019-01-06T05:25:24.513Z,4.00
2019-01-06T05:26:24.504Z,4.00
2019-01-06T05:27:24.465Z,4.00
2019-01-06T05:28:24.492Z,4.00
2019-01-06T05:29:24.418Z,4.00
2019-01-06T05:30:24.393Z,4.00
2019-01-06T05:31:24.372Z,4.00
2019-01-06T05:32:24.387Z,4.00
2019-01-06T05:33:24.328Z,4.00
2019-01-06T05:34:24.389Z,4.00
2019-01-06T05:35:24.277Z,4.00
2019-01-06T05:36:24.261Z,4.00
2019-01-06T05:37:24.230Z,4.00
2019-01-06T05:38:24.207Z,4.00
2019-01-06T05:39:24.183Z,4.00
2019-01-06T05:40:24.159Z,4.00
2019-01-06T05:41:24.135Z,4.00
2019-01-06T05:42:24.121Z,4.00
2019-01-06T05:43:24.093Z,4.00
2019-01-06T05:44:24.065Z,4.00
2019-01-06T05:45:24.043Z,4.00
2019-01-06T05:46:24.019Z,4.00
2019-01-06T05:47:23.995Z,4.00
2019-01-06T05:48:23.972Z,4.00
2019-01-06T05:49:23.947Z,4.00
2019-01-06T05:50:23.925Z,4.00
2019-01-06T05:51:23.904Z,4.00
2019-01-06T05:52:23.882Z,4.00
2019-01-06T05:53:23.855Z,4.00
2019-01-06T05:54:23.829Z,4.00
2019-01-06T05:55:23.806Z,4.00
2019-01-06T05:56:23.784Z,4.00
2019-01-06T05:57:23.759Z,4.00
2019-01-06T05:58:23.736Z,4.00
2019-01-06T05:59:23.710Z,4.00
2019-01-06T06:00:23.688Z,4.00
2019-01-06T06:01:23.679Z,4.00
2019-01-06T06:02:23.706Z,4.00
2019-01-06T06:03:23.617Z,4.00
2019-01-06T06:04:23.595Z,4.00
2019-01-06T06:05:23.570Z,4.00
2019-01-06T06:06:23.546Z,4.00
2019-01-06T06:07:23.523Z,4.00
2019-01-06T06:08:23.504Z,4.00
2019-01-06T06:09:23.526Z,4.00
2019-01-06T06:10:23.453Z,4.00
2019-01-06T06:11:23.428Z,4.00
2019-01-06T06:12:23.406Z,4.00
2019-01-06T06:13:23.379Z,4.00
2019-01-06T06:14:23.357Z,4.00
2019-01-06T06:15:23.339Z,4.00
2019-01-06T06:16:23.310Z,4.00
2019-01-06T06:17:23.287Z,4.00
2019-01-06T06:18:23.265Z,4.00
2019-01-06T06:19:23.238Z,4.00
2019-01-06T06:20:23.213Z,4.00
2019-01-06T06:21:23.192Z,4.00
2019-01-06T06:22:23.168Z,4.00
2019-01-06T06:23:23.143Z,4.00
2019-01-06T06:24:23.129Z,4.00
2019-01-06T06:25:23.104Z,4.00
2019-01-06T06:26:23.081Z,4.00
2019-01-06T06:27:23.049Z,4.00
2019-01-06T06:28:23.029Z,4.00
2019-01-06T06:29:23.009Z,4.00
2019-01-06T06:30:22.985Z,4.00
2019-01-06T06:31:22.961Z,4.00
2019-01-06T06:32:22.933Z,4.00
2019-01-06T06:33:22.918Z,4.00
2019-01-06T06:34:22.884Z,4.00
2019-01-06T06:35:22.862Z,4.00
2019-01-06T06:36:22.842Z,4.00
2019-01-06T06:37:22.818Z,4.00
2019-01-06T06:38:22.789Z,4.00
2019-01-06T06:39:22.765Z,4.00
2019-01-06T06:40:22.751Z,4.00
2019-01-06T06:41:22.720Z,4.00
2019-01-06T06:42:22.697Z,4.00
2019-01-06T06:43:22.675Z,4.00
2019-01-06T06:44:22.653Z,4.00
2019-01-06T06:45:22.624Z,4.00
2019-01-06T06:46:22.601Z,4.00
2019-01-06T06:47:22.577Z,4.00
2019-01-06T06:48:22.555Z,4.00
2019-01-06T06:49:22.528Z,4.00
2019-01-06T06:50:22.511Z,4.00
2019-01-06T06:51:22.483Z,4.00
2019-01-06T06:52:22.460Z,4.00
2019-01-06T06:53:22.432Z,4.00
2019-01-06T06:54:22.411Z,4.00
2019-01-06T06:55:22.391Z,4.00
2019-01-06T06:56:22.364Z,4.00
2019-01-06T06:57:22.358Z,4.00
2019-01-06T06:58:22.325Z,4.00
2019-01-06T06:59:22.300Z,4.00
2019-01-06T07:00:22.279Z,8.00
2019-01-06T07:01:22.246Z,4.00
2019-01-06T07:02:22.222Z,4.00
2019-01-06T07:03:22.198Z,8.00
2019-01-06T07:04:22.174Z,4.00
2019-01-06T07:05:22.150Z,8.00
2019-01-06T07:06:22.127Z,8.00
2019-01-06T07:07:22.104Z,12.00
2019-01-06T07:08:22.082Z,12.00
2019-01-06T07:09:22.067Z,12.00
2019-01-06T07:10:22.033Z,12.00
2019-01-06T07:11:22.011Z,12.00
2019-01-06T07:12:21.988Z,16.00
2019-01-06T07:13:21.972Z,12.00
2019-01-06T07:14:21.939Z,16.00
2019-01-06T07:15:21.917Z,16.00
2019-01-06T07:16:21.892Z,20.00
2019-01-06T07:17:21.875Z,24.00
2019-01-06T07:18:21.853Z,20.00
2019-01-06T07:19:21.829Z,24.00
2019-01-06T07:20:21.797Z,28.00
2019-01-06T07:21:21.775Z,36.00
2019-01-06T07:22:21.756Z,40.00
2019-01-06T07:23:21.726Z,44.00
2019-01-06T07:24:21.706Z,48.00
2019-01-06T07:25:21.681Z,56.00
2019-01-06T07:26:21.669Z,60.00
2019-01-06T07:27:21.785Z,60.00
2019-01-06T07:28:21.609Z,60.00
2019-01-06T07:29:21.587Z,64.00
2019-01-06T07:30:21.563Z,68.00
2019-01-06T07:31:21.540Z,76.00
2019-01-06T07:32:21.515Z,92.00
2019-01-06T07:33:21.556Z,96.00
2019-01-06T07:34:21.482Z,104.00
2019-01-06T07:35:21.448Z,112.00
2019-01-06T07:36:21.420Z,120.00
2019-01-06T07:37:21.400Z,136.00
2019-01-06T07:38:21.378Z,152.00
2019-01-06T07:39:21.352Z,164.00
2019-01-06T07:40:21.328Z,192.00
2019-01-06T07:41:21.307Z,184.00
2019-01-06T07:42:21.303Z,208.00
2019-01-06T07:43:21.260Z,236.00
2019-01-06T07:44:21.234Z,240.00
2019-01-06T07:45:21.209Z,256.00
2019-01-06T07:46:21.186Z,256.00
2019-01-06T07:47:21.170Z,284.00
2019-01-06T07:48:21.146Z,304.00
2019-01-06T07:49:21.115Z,316.00
2019-01-06T07:50:21.098Z,300.00
2019-01-06T07:51:21.069Z,308.00
2019-01-06T07:52:21.050Z,320.00
2019-01-06T07:53:21.021Z,332.00
2019-01-06T07:54:21.001Z,336.00
2019-01-06T07:55:21.036Z,360.00
2019-01-06T07:56:20.951Z,376.00
2019-01-06T07:57:20.927Z,340.00
2019-01-06T07:58:20.903Z,400.00
2019-01-06T07:59:20.881Z,388.00
2019-01-06T08:00:20.857Z,408.00
2019-01-06T08:01:20.837Z,444.00
2019-01-06T08:02:20.815Z,452.00
2019-01-06T08:03:20.786Z,512.00
2019-01-06T08:04:20.771Z,524.00
2019-01-06T08:05:20.751Z,544.00
2019-01-06T08:06:20.723Z,580.00
2019-01-06T08:07:20.691Z,576.00
2019-01-06T08:08:20.687Z,648.00
2019-01-06T08:09:20.647Z,668.00
2019-01-06T08:10:20.636Z,652.00
2019-01-06T08:11:20.607Z,680.00
2019-01-06T08:12:20.579Z,692.00
2019-01-06T08:13:20.550Z,648.00
2019-01-06T08:14:20.528Z,640.00
2019-01-06T08:15:20.506Z,672.00
2019-01-06T08:16:20.483Z,632.00
2019-01-06T08:17:20.459Z,712.00
2019-01-06T08:18:20.436Z,684.00
2019-01-06T08:19:20.412Z,712.00
2019-01-06T08:20:20.396Z,788.00
2019-01-06T08:21:20.367Z,752.00
2019-01-06T08:22:20.343Z,828.00
2019-01-06T08:23:20.318Z,856.00
2019-01-06T08:24:20.313Z,872.00
2019-01-06T08:25:20.273Z,908.00
2019-01-06T08:26:20.255Z,944.00
2019-01-06T08:27:20.225Z,900.00
2019-01-06T08:28:20.205Z,916.00
2019-01-06T08:29:20.182Z,920.00
2019-01-06T08:30:20.156Z,1032.00
2019-01-06T08:31:20.151Z,1008.00
2019-01-06T08:32:20.107Z,956.00
2019-01-06T08:33:20.085Z,1020.00
2019-01-06T08:34:20.061Z,1024.00
2019-01-06T08:35:20.045Z,1180.00
2019-01-06T08:36:20.015Z,1232.00
2019-01-06T08:37:19.996Z,1340.00
2019-01-06T08:38:19.967Z,1292.00
2019-01-06T08:39:19.946Z,1252.00
2019-01-06T08:40:19.922Z,1368.00
2019-01-06T08:41:19.913Z,1288.00
2019-01-06T08:42:19.889Z,1356.00
2019-01-06T08:43:19.860Z,1304.00
2019-01-06T08:44:19.829Z,1532.00
2019-01-06T08:45:19.804Z,1500.00
2019-01-06T08:46:19.831Z,1436.00
2019-01-06T08:47:19.756Z,1600.00
2019-01-06T08:48:19.742Z,1388.00
2019-01-06T08:49:19.712Z,1332.00
2019-01-06T08:50:19.687Z,1380.00
2019-01-06T08:51:21.105Z,1328.00
2019-01-06T08:52:19.641Z,1380.00
2019-01-06T08:53:19.635Z,1444.00
2019-01-06T08:54:19.593Z,1368.00
2019-01-06T08:55:19.572Z,1488.00
2019-01-06T08:56:19.563Z,1652.00
2019-01-06T08:57:19.531Z,1528.00
2019-01-06T08:58:19.500Z,1620.00
2019-01-06T08:59:19.490Z,1632.00
2019-01-06T09:00:19.454Z,1836.00
2019-01-06T09:01:19.431Z,1936.00
2019-01-06T09:02:19.409Z,1904.00
2019-01-06T09:03:19.385Z,1820.00
2019-01-06T09:04:19.366Z,1884.00
2019-01-06T09:05:19.337Z,1716.00
2019-01-06T09:06:19.318Z,1768.00
2019-01-06T09:07:19.296Z,1940.00
2019-01-06T09:08:19.270Z,1936.00
2019-01-06T09:09:19.246Z,1996.00
2019-01-06T09:10:19.225Z,1984.00
2019-01-06T09:11:19.200Z,2268.00
2019-01-06T09:12:19.180Z,1972.00
2019-01-06T09:13:19.169Z,2068.00
2019-01-06T09:14:19.130Z,2228.00
2019-01-06T09:15:19.109Z,2300.00
2019-01-06T09:16:19.089Z,2684.00
2019-01-06T09:17:19.061Z,2456.00
2019-01-06T09:18:19.046Z,2328.00
2019-01-06T09:19:19.014Z,2316.00
2019-01-06T09:20:18.998Z,2252.00
2019-01-06T09:21:18.981Z,2228.00
2019-01-06T09:22:18.946Z,2264.00
2019-01-06T09:23:18.928Z,2428.00
2019-01-06T09:24:18.899Z,2612.00
2019-01-06T09:25:18.880Z,2580.00
2019-01-06T09:26:18.851Z,2344.00
2019-01-06T09:27:18.846Z,2268.00
2019-01-06T09:28:18.820Z,2320.00
2019-01-06T09:29:18.780Z,2444.00
2019-01-06T09:30:18.760Z,2968.00
2019-01-06T09:31:18.736Z,3072.00
2019-01-06T09:32:18.715Z,2988.00
2019-01-06T09:33:18.690Z,2912.00
2019-01-06T09:34:18.675Z,3028.00
2019-01-06T09:35:18.653Z,2896.00
2019-01-06T09:36:18.624Z,3160.00
2019-01-06T09:37:18.596Z,2804.00
2019-01-06T09:38:18.574Z,3088.00
2019-01-06T09:39:18.551Z,2988.00
2019-01-06T09:40:18.593Z,2768.00
2019-01-06T09:41:18.525Z,2884.00
2019-01-06T09:42:18.483Z,3028.00
2019-01-06T09:43:18.461Z,2828.00
2019-01-06T09:44:18.489Z,3080.00
2019-01-06T09:45:18.416Z,2792.00
2019-01-06T09:46:18.391Z,2520.00
2019-01-06T09:47:18.368Z,2616.00
2019-01-06T09:48:18.346Z,2504.00
2019-01-06T09:49:18.323Z,2668.00
2019-01-06T09:50:18.300Z,2936.00
2019-01-06T09:51:18.281Z,2792.00
2019-01-06T09:52:18.261Z,3136.00
2019-01-06T09:53:18.232Z,3076.00
2019-01-06T09:54:18.208Z,2876.00
2019-01-06T09:55:18.187Z,3044.00
2019-01-06T09:56:18.163Z,3116.00
2019-01-06T09:57:18.141Z,2924.00
2019-01-06T09:58:18.120Z,3116.00
2019-01-06T09:59:18.101Z,3092.00
2019-01-06T10:00:18.110Z,3044.00
2019-01-06T10:01:18.050Z,2968.00
2019-01-06T10:02:18.098Z,3772.00
2019-01-06T10:03:18.014Z,3772.00
2019-01-06T10:04:17.982Z,3956.00
2019-01-06T10:05:17.959Z,3852.00
2019-01-06T10:06:17.935Z,4112.00
2019-01-06T10:07:17.913Z,4280.00
2019-01-06T10:08:17.899Z,3872.00
2019-01-06T10:09:17.869Z,3996.00
2019-01-06T10:10:17.844Z,4596.00
2019-01-06T10:11:17.827Z,4412.00
2019-01-06T10:12:17.800Z,3944.00
2019-01-06T10:13:17.777Z,4168.00
2019-01-06T10:14:17.755Z,4116.00
2019-01-06T10:15:17.740Z,4516.00
2019-01-06T10:16:17.761Z,5008.00
2019-01-06T10:17:17.688Z,4604.00
2019-01-06T10:18:17.664Z,4480.00
2019-01-06T10:19:17.658Z,4464.00
2019-01-06T10:20:17.619Z,4048.00
2019-01-06T10:21:17.595Z,3736.00
2019-01-06T10:22:17.574Z,3724.00
2019-01-06T10:23:17.558Z,4136.00
2019-01-06T10:24:17.532Z,3860.00
2019-01-06T10:25:17.513Z,3940.00
2019-01-06T10:26:17.543Z,4252.00
2019-01-06T10:27:17.476Z,4248.00
2019-01-06T10:28:17.440Z,4144.00
2019-01-06T10:29:17.428Z,4232.00
2019-01-06T10:30:17.404Z,4780.00
2019-01-06T10:31:17.387Z,4560.00
2019-01-06T10:32:17.348Z,5356.00
2019-01-06T10:33:17.326Z,4972.00
2019-01-06T10:34:17.311Z,4600.00
2019-01-06T10:35:17.290Z,4704.00
2019-01-06T10:36:17.267Z,4460.00
2019-01-06T10:37:17.248Z,4272.00
2019-01-06T10:38:17.215Z,4896.00
2019-01-06T10:39:17.205Z,4568.00
2019-01-06T10:40:17.191Z,5248.00
2019-01-06T10:41:17.188Z,4568.00
2019-01-06T10:42:17.132Z,4108.00
2019-01-06T10:43:17.113Z,3712.00
2019-01-06T10:44:17.082Z,4020.00
2019-01-06T10:45:17.061Z,3352.00
2019-01-06T10:46:17.052Z,3212.00
2019-01-06T10:47:17.024Z,3296.00
2019-01-06T10:48:16.995Z,3064.00
2019-01-06T10:49:16.979Z,3256.00
2019-01-06T10:50:16.948Z,3096.00
2019-01-06T10:51:16.928Z,2992.00
2019-01-06T10:52:16.919Z,3052.00
2019-01-06T10:53:16.917Z,3108.00
2019-01-06T10:54:16.860Z,2876.00
2019-01-06T10:55:16.838Z,2964.00
2019-01-06T10:56:16.829Z,3356.00
2019-01-06T10:57:16.796Z,3128.00
2019-01-06T10:58:16.775Z,3540.00
2019-01-06T10:59:16.753Z,3960.00
2019-01-06T11:00:16.732Z,3980.00
2019-01-06T11:01:16.733Z,3804.00
2019-01-06T11:02:16.691Z,3592.00
2019-01-06T11:03:16.662Z,3024.00
2019-01-06T11:04:16.654Z,2600.00
2019-01-06T11:05:16.618Z,3180.00
2019-01-06T11:06:16.607Z,2908.00
2019-01-06T11:07:16.603Z,2716.00
2019-01-06T11:08:18.021Z,2200.00
2019-01-06T11:09:16.528Z,2232.00
2019-01-06T11:10:16.512Z,2624.00
2019-01-06T11:11:16.485Z,2648.00
2019-01-06T11:12:16.461Z,2724.00
2019-01-06T11:13:16.445Z,2712.00
2019-01-06T11:14:16.416Z,2804.00
2019-01-06T11:15:16.398Z,2812.00
2019-01-06T11:16:16.376Z,3060.00
2019-01-06T11:17:16.350Z,3288.00
2019-01-06T11:18:16.437Z,3644.00
2019-01-06T11:19:16.314Z,3528.00
2019-01-06T11:20:16.284Z,3160.00
2019-01-06T11:21:16.307Z,3148.00
2019-01-06T11:22:16.239Z,2512.00
2019-01-06T11:23:16.239Z,2776.00
2019-01-06T11:24:16.208Z,2732.00
2019-01-06T11:25:16.181Z,2840.00
2019-01-06T11:26:16.155Z,2232.00
2019-01-06T11:27:16.129Z,2976.00
2019-01-06T11:28:16.108Z,3060.00
2019-01-06T11:29:16.085Z,3700.00
2019-01-06T11:30:16.064Z,4176.00
2019-01-06T11:31:16.043Z,4308.00
2019-01-06T11:32:16.021Z,5400.00
2019-01-06T11:33:15.994Z,5872.00
2019-01-06T11:34:15.996Z,6184.00
2019-01-06T11:35:15.950Z,5364.00
2019-01-06T11:36:15.941Z,5968.00
2019-01-06T11:37:15.914Z,5828.00
2019-01-06T11:38:15.894Z,6136.00
2019-01-06T11:39:15.861Z,6180.00
2019-01-06T11:40:15.864Z,5684.00
2019-01-06T11:41:15.827Z,4720.00
2019-01-06T11:42:15.810Z,4876.00
2019-01-06T11:43:15.790Z,4816.00
2019-01-06T11:44:15.754Z,4780.00
2019-01-06T11:45:15.741Z,4264.00
2019-01-06T11:46:15.707Z,4636.00
2019-01-06T11:47:15.683Z,4160.00
2019-01-06T11:48:15.667Z,4304.00
2019-01-06T11:49:15.643Z,4664.00
2019-01-06T11:50:15.617Z,5864.00
2019-01-06T11:51:15.602Z,5876.00
2019-01-06T11:52:15.578Z,6380.00
2019-01-06T11:53:15.563Z,6412.00
2019-01-06T11:54:15.530Z,6200.00
2019-01-06T11:55:15.554Z,7700.00
2019-01-06T11:56:15.491Z,8740.00
2019-01-06T11:57:15.461Z,9036.00
2019-01-06T11:58:15.439Z,8672.00
2019-01-06T11:59:15.426Z,8428.00
2019-01-06T12:00:15.463Z,7804.00
2019-01-06T12:01:15.380Z,7160.00
2019-01-06T12:02:15.358Z,6932.00
2019-01-06T12:03:15.330Z,6608.00
2019-01-06T12:04:15.324Z,6128.00
2019-01-06T12:05:15.292Z,5796.00
2019-01-06T12:06:15.281Z,4932.00
2019-01-06T12:07:15.242Z,5480.00
2019-01-06T12:08:15.231Z,5360.00
2019-01-06T12:09:15.205Z,4648.00
2019-01-06T12:10:15.179Z,3808.00
2019-01-06T12:11:15.154Z,4760.00
2019-01-06T12:12:15.241Z,5800.00
2019-01-06T12:13:15.114Z,6404.00
2019-01-06T12:14:15.099Z,6956.00
2019-01-06T12:15:15.123Z,6960.00
2019-01-06T12:16:15.045Z,7136.00
2019-01-06T12:17:15.043Z,6640.00
2019-01-06T12:18:15.002Z,6660.00
2019-01-06T12:19:14.983Z,6256.00
2019-01-06T12:20:14.966Z,6328.00
2019-01-06T12:21:14.936Z,5996.00
2019-01-06T12:22:14.915Z,6108.00
2019-01-06T12:23:14.893Z,6460.00
2019-01-06T12:24:14.873Z,5668.00
2019-01-06T12:25:14.848Z,5260.00
2019-01-06T12:26:14.826Z,5232.00
2019-01-06T12:27:14.809Z,5160.00
2019-01-06T12:28:14.793Z,5048.00
2019-01-06T12:29:14.767Z,4936.00
2019-01-06T12:30:14.744Z,5088.00
2019-01-06T12:31:14.724Z,5228.00
2019-01-06T12:32:14.698Z,5464.00
2019-01-06T12:33:14.676Z,5624.00
2019-01-06T12:34:14.656Z,5880.00
2019-01-06T12:35:14.632Z,5836.00
2019-01-06T12:36:14.628Z,5732.00
2019-01-06T12:37:14.597Z,5560.00
2019-01-06T12:38:14.582Z,5316.00
2019-01-06T12:39:14.547Z,4968.00
2019-01-06T12:40:14.535Z,4688.00
2019-01-06T12:41:14.504Z,4404.00
2019-01-06T12:42:14.482Z,4168.00
2019-01-06T12:43:14.476Z,3992.00
2019-01-06T12:44:14.454Z,4176.00
2019-01-06T12:45:14.429Z,4608.00
2019-01-06T12:46:14.422Z,4240.00
2019-01-06T12:47:14.377Z,3948.00